Time;durP1;ratioP1;P1;durP2;ratioP2;P2;SDS_P1;SDS_P2;PMS_P1;PMS_P2;Temp;Humidity;BMP_temperature;BMP_pressure;BME280_temperature;BME280_humidity;BME280_pressure;Samples;Min_cycle;Max_cycle;Signal;HPM_P1;HPM_P2
2021/09/17 00:01:47;;;;;;;6.45;5.03;;;11.80;99.90;;;12.88;100.00;100677.53;6226799;23;20070;-90
2021/09/17 00:04:13;;;;;;;6.40;5.15;;;11.80;99.90;;;12.90;100.00;100678.00;6226096;23;20007;-87
2021/09/17 00:06:39;;;;;;;7.10;4.90;;;11.80;99.90;;;12.91;100.00;100664.75;6230794;23;19996;-85
2021/09/17 00:09:05;;;;;;;8.82;5.63;;;11.90;99.90;;;12.92;100.00;100672.81;6245862;22;20000;-84
2021/09/17 00:11:32;;;;;;;9.75;6.25;;;11.80;99.90;;;12.90;100.00;100671.56;6244142;23;20016;-84
2021/09/17 00:14:13;;;;;;;;;;;;;;;;;;;;;
2021/09/17 00:16:44;;;;;;;8.35;6.35;;;11.80;99.90;;;12.90;100.00;100675.19;6253176;23;20034;-86
2021/09/17 00:19:12;;;;;;;12.05;6.80;;;11.80;99.90;;;12.93;100.00;100673.63;6226511;22;20346;-85
2021/09/17 00:21:53;;;;;;;8.27;5.95;;;11.80;99.90;;;12.95;100.00;100674.06;6226311;23;20399;-86
2021/09/17 00:24:19;;;;;;;10.52;6.43;;;11.80;99.90;;;12.97;100.00;100668.91;6225752;23;20004;-87
2021/09/17 00:26:45;;;;;;;11.18;7.40;;;11.80;99.90;;;12.96;100.00;100676.50;6226800;23;20030;-87
2021/09/17 00:29:11;;;;;;;10.52;6.95;;;11.80;99.90;;;12.96;100.00;100668.09;6225690;22;20015;-85
2021/09/17 00:31:37;;;;;;;14.10;6.88;;;11.80;99.90;;;12.95;100.00;100669.25;6224363;23;20334;-85
2021/09/17 00:34:03;;;;;;;10.48;6.65;;;11.80;99.90;;;12.95;100.00;100674.06;6223706;23;20499;-85
2021/09/17 00:36:32;;;;;;;12.40;6.95;;;11.80;99.90;;;12.93;100.00;100666.03;6225213;23;20062;-84
2021/09/17 01:20:31;;;;;;;15.52;11.38;;;12.40;99.90;;;13.72;100.00;100647.28;6257180;23;20023;-86
2021/09/17 01:22:57;;;;;;;15.95;11.50;;;12.50;99.90;;;13.80;100.00;100642.59;6255195;23;20008;-87
2021/09/17 01:25:23;;;;;;;16.17;11.57;;;12.60;99.90;;;13.84;100.00;100646.25;6255136;23;20110;-87
2021/09/17 01:27:52;;;;;;;19.73;12.90;;;12.70;99.90;;;13.88;100.00;100635.06;6230699;23;20008;-86
2021/09/17 01:30:21;;;;;;;17.80;11.32;;;12.60;99.90;;;13.89;100.00;100639.50;6230530;23;20087;-87
2021/09/17 01:32:48;;;;;;;17.85;11.38;;;12.60;99.90;;;13.89;100.00;100631.88;6229731;23;20446;-87
2021/09/17 01:35:20;;;;;;;13.10;9.43;;;12.70;99.90;;;13.88;100.00;100635.06;6230037;23;20098;-88
2021/09/17 01:37:48;;;;;;;13.85;9.55;;;12.70;99.90;;;13.86;100.00;100641.06;6229803;23;20008;-88
2021/09/17 01:40:16;;;;;;;14.40;10.18;;;12.60;99.90;;;13.86;100.00;100641.06;6229676;23;20031;-86
2021/09/17 01:42:43;;;;;;;14.75;10.68;;;12.60;99.90;;;13.89;100.00;100640.31;6230940;23;20004;-87
2021/09/17 01:45:12;;;;;;;17.77;11.88;;;12.60;99.90;;;13.91;100.00;100637.09;6226630;23;20016;-87
2021/09/17 01:47:39;;;;;;;14.10;10.60;;;12.70;99.90;;;13.90;100.00;100638.31;6251860;23;20008;-87
2021/09/17 01:50:08;;;;;;;20.75;12.85;;;12.70;99.90;;;13.91;100.00;100631.50;6226292;23;20046;-87
2021/09/17 01:52:34;;;;;;;20.73;15.27;;;12.70;99.90;;;13.98;100.00;100629.59;6226697;23;20012;-87
2021/09/17 01:54:59;;;;;;;27.85;16.00;;;12.80;99.90;;;14.02;100.00;100624.84;6226381;23;20468;-88
2021/09/17 01:57:25;;;;;;;22.13;13.68;;;12.80;99.90;;;14.08;100.00;100628.94;6226460;23;20342;-88
2021/09/17 01:59:51;;;;;;;29.02;17.92;;;12.80;99.90;;;14.14;100.00;100626.56;6226130;23;20099;-85
2021/09/17 02:02:50;;;;;;;30.15;17.33;;;12.90;99.90;;;14.18;100.00;100622.63;6225936;23;20008;-87
2021/09/17 02:05:17;;;;;;;28.80;17.88;;;12.90;99.90;;;14.24;100.00;100623.09;6226246;23;20094;-89
2021/09/17 02:07:44;;;;;;;24.33;16.50;;;13.00;99.90;;;14.27;100.00;100620.31;6253329;23;20084;-86
2021/09/17 02:10:12;;;;;;;28.75;18.13;;;13.00;99.90;;;14.27;100.00;100625.13;6225813;23;20086;-88
2021/09/17 02:12:40;;;;;;;26.52;15.38;;;13.00;99.90;;;14.27;100.00;100625.94;6226601;23;20004;-88
2021/09/17 02:15:09;;;;;;;23.02;15.32;;;13.00;99.90;;;14.30;100.00;100629.97;6250944;23;20034;-88
2021/09/17 02:17:36;;;;;;;28.35;15.32;;;13.00;99.90;;;14.31;100.00;100630.78;6251542;23;20020;-87
2021/09/17 02:20:06;;;;;;;25.25;15.73;;;13.10;99.90;;;14.31;100.00;100626.00;6225280;23;20041;-87
2021/09/17 02:22:36;;;;;;;26.55;17.20;;;13.00;99.90;;;14.33;100.00;100618.00;6226073;23;20026;-88
2021/09/17 02:25:04;;;;;;;30.05;19.20;;;13.10;99.90;;;14.35;100.00;100620.44;6226240;23;20087;-88
2021/09/17 02:27:30;;;;;;;32.45;19.52;;;13.10;99.90;;;14.36;100.00;100619.22;6227277;23;20058;-86
2021/09/17 02:29:57;;;;;;;32.80;18.75;;;13.20;99.90;;;14.39;100.00;100618.47;6252700;22;20008;-88
2021/09/17 02:32:23;;;;;;;30.85;19.45;;;13.10;99.90;;;14.45;100.00;100625.38;6226673;23;20480;-86
2021/09/17 02:34:49;;;;;;;28.45;18.88;;;13.20;99.90;;;14.46;100.00;100622.16;6227122;23;20051;-84
2021/09/17 02:37:15;;;;;;;32.83;20.17;;;13.20;99.90;;;14.45;100.00;100614.13;6227800;23;20019;-87
2021/09/17 02:39:41;;;;;;;36.10;21.55;;;13.20;99.90;;;14.50;100.00;100617.41;6227586;23;20153;-86
2021/09/17 02:42:08;;;;;;;32.42;21.02;;;13.30;99.90;;;14.53;100.00;100621.44;6227856;23;20004;-85
2021/09/17 02:44:34;;;;;;;38.13;22.33;;;13.30;99.90;;;14.56;100.00;100615.84;6228415;23;20342;-86
2021/09/17 02:47:01;;;;;;;30.73;20.38;;;13.30;99.90;;;14.56;100.00;100615.84;6233398;23;20004;-85
2021/09/17 02:49:27;;;;;;;31.42;19.73;;;13.30;99.90;;;14.58;100.00;100618.25;6236367;22;20004;-86
2021/09/17 02:51:53;;;;;;;32.97;22.33;;;13.30;99.90;;;14.57;100.00;100617.47;6231640;23;20004;-88
2021/09/17 02:54:19;;;;;;;26.90;17.73;;;13.30;99.90;;;14.58;100.00;100613.47;6231657;23;20067;-85
2021/09/17 02:56:44;;;;;;;32.95;19.23;;;13.40;99.90;;;14.60;100.00;100604.66;6232125;23;20004;-84
2021/09/17 02:59:10;;;;;;;42.30;23.85;;;13.40;99.90;;;14.59;100.00;100608.66;6226048;22;20468;-89
2021/09/17 03:01:36;;;;;;;31.45;21.30;;;13.30;99.90;;;14.62;100.00;100607.88;6227071;23;20004;-87
2021/09/17 03:04:02;;;;;;;36.47;21.52;;;13.30;99.90;;;14.63;100.00;100596.25;6228369;23;20000;-88
2021/09/17 03:06:28;;;;;;;34.70;21.52;;;13.40;99.90;;;14.63;100.00;100607.50;6227863;23;20003;-85
2021/09/17 03:08:54;;;;;;;36.35;22.50;;;13.40;99.90;;;14.65;100.00;100607.09;6228235;23;20434;-88
2021/09/17 03:11:21;;;;;;;34.65;20.30;;;13.40;99.90;;;14.65;100.00;100595.84;6228481;23;20274;-86
2021/09/17 03:13:46;;;;;;;30.17;20.08;;;13.40;99.90;;;14.66;100.00;100603.91;6229080;23;20100;-86
2021/09/17 03:16:12;;;;;;;33.42;21.38;;;13.50;99.90;;;14.67;100.00;100594.25;6257001;23;20008;-88
2021/09/17 03:18:41;;;;;;;33.53;20.70;;;13.40;99.90;;;14.68;100.00;100601.50;6230117;23;20004;-86
2021/09/17 03:21:07;;;;;;;37.00;21.40;;;13.40;99.90;;;14.68;100.00;100595.91;6229742;23;20031;-86
2021/09/17 03:23:33;;;;;;;41.03;25.10;;;13.40;99.90;;;14.73;100.00;100600.38;6229188;23;20338;-88
2021/09/17 03:25:59;;;;;;;48.38;30.55;;;13.50;99.90;;;14.76;100.00;100591.97;6230790;23;20015;-88
2021/09/17 03:28:25;;;;;;;40.95;25.73;;;13.50;99.90;;;14.80;100.00;100594.00;6236165;23;19992;-85
2021/09/17 03:30:51;;;;;;;39.20;25.08;;;13.50;99.90;;;14.77;100.00;100596.38;6245296;23;19992;-85
2021/09/17 03:33:18;;;;;;;37.20;24.77;;;13.50;99.90;;;14.80;100.00;100597.63;6256067;23;20051;-87
2021/09/17 03:35:45;;;;;;;41.03;25.65;;;13.50;99.90;;;14.80;100.00;100597.63;6226426;23;20008;-87
2021/09/17 03:38:11;;;;;;;38.45;23.52;;;13.50;99.90;;;14.79;100.00;100598.81;6226100;23;20065;-85
2021/09/17 03:40:39;;;;;;;40.88;25.00;;;13.50;99.90;;;14.78;100.00;100589.56;6226352;23;20008;-86
2021/09/17 03:43:07;;;;;;;48.83;30.08;;;13.50;99.90;;;14.82;100.00;100600.84;6226268;23;20012;-85
2021/09/17 03:45:36;;;;;;;49.63;27.65;;;13.50;99.90;;;14.83;100.00;100587.59;6226706;23;20384;-85
2021/09/17 03:48:09;;;;;;;45.00;27.13;;;13.50;99.90;;;14.82;100.00;100589.59;6227947;23;20008;-86
2021/09/17 03:50:36;;;;;;;38.10;23.67;;;13.50;99.90;;;14.83;100.00;100594.03;6229107;23;20067;-87
2021/09/17 03:53:03;;;;;;;37.25;24.40;;;13.50;99.90;;;14.84;100.00;100595.63;6228603;23;20071;-88
2021/09/17 03:55:29;;;;;;;33.33;21.77;;;13.50;99.90;;;14.81;100.00;100592.78;6229542;23;20451;-86
2021/09/17 03:57:55;;;;;;;37.65;24.55;;;13.50;99.90;;;14.78;100.00;100583.94;6229636;23;20004;-86
2021/09/17 04:00:21;;;;;;;35.90;22.83;;;13.50;99.90;;;14.78;100.00;100588.75;6229279;23;20004;-86
2021/09/17 04:02:47;;;;;;;38.95;24.30;;;13.50;99.90;;;14.78;100.00;100588.75;6230419;23;20337;-86
2021/09/17 04:05:13;;;;;;;39.30;23.10;;;13.50;99.90;;;14.76;100.00;100575.09;6230097;23;20000;-86
2021/09/17 04:07:42;;;;;;;33.75;22.55;;;13.50;99.90;;;14.78;100.00;100577.50;6229867;23;20349;-88
2021/09/17 04:10:14;;;;;;;40.83;26.15;;;13.50;99.90;;;14.76;100.00;100577.09;6229845;23;20019;-86
2021/09/17 04:12:40;;;;;;;49.22;30.98;;;13.50;99.90;;;14.69;100.00;100580.66;6229354;23;20109;-90
2021/09/17 04:15:08;;;;;;;41.47;24.05;;;13.40;99.90;;;14.68;100.00;100586.66;6229794;23;20013;-86
2021/09/17 04:17:34;;;;;;;43.33;25.48;;;13.40;99.90;;;14.67;100.00;100585.06;6230424;23;20047;-85
2021/09/17 04:20:05;;;;;;;43.67;26.15;;;13.40;99.90;;;14.65;100.00;100577.00;6231194;23;20059;-85
2021/09/17 04:22:32;;;;;;;46.55;28.20;;;13.40;99.90;;;14.66;100.00;100580.63;6230955;23;20015;-87
2021/09/17 04:24:57;;;;;;;48.65;29.65;;;13.40;99.90;;;14.63;100.00;100581.38;6231147;23;20007;-87
2021/09/17 04:27:26;;;;;;;45.72;27.88;;;13.40;99.90;;;14.63;100.00;100581.38;6231103;23;20410;-89
2021/09/17 04:29:54;;;;;;;53.67;31.90;;;13.40;99.90;;;14.65;100.00;100579.81;6231084;23;20038;-90
2021/09/17 04:32:21;;;;;;;48.28;29.55;;;13.30;99.90;;;14.66;100.00;100577.81;6230303;23;20093;-90
2021/09/17 04:34:47;;;;;;;46.92;27.67;;;13.40;99.90;;;14.68;100.00;100581.03;6257725;23;20004;-88
2021/09/17 04:37:12;;;;;;;47.22;28.48;;;13.40;99.90;;;14.67;100.00;100571.00;6230879;23;20035;-87
2021/09/17 04:39:38;;;;;;;50.20;30.95;;;13.40;99.90;;;14.65;100.00;100574.19;6230679;23;20334;-88
2021/09/17 04:42:05;;;;;;;55.13;32.28;;;13.40;99.90;;;14.66;100.00;100581.44;6258389;23;20007;-87
2021/09/17 04:44:31;;;;;;;51.83;30.35;;;13.40;99.90;;;14.65;100.00;100573.38;6232889;23;20015;-86
2021/09/17 04:46:57;;;;;;;52.03;29.67;;;13.40;99.90;;;14.64;100.00;100581.00;6232828;23;20032;-88
2021/09/17 04:49:23;;;;;;;46.28;29.30;;;13.40;99.90;;;14.67;100.00;100580.22;6230266;22;20099;-86
2021/09/17 04:51:49;;;;;;;49.90;30.88;;;13.40;99.90;;;14.66;100.00;100577.81;6229275;23;20153;-87
2021/09/17 04:54:17;;;;;;;54.75;33.35;;;13.40;99.90;;;14.68;100.00;100575.41;6232691;23;20019;-85
2021/09/17 04:56:43;;;;;;;59.28;31.08;;;13.40;99.90;;;14.67;100.00;100573.81;6234834;23;20008;-85
2021/09/17 04:59:11;;;;;;;54.08;29.73;;;13.50;99.90;;;14.67;100.00;100580.22;6241463;22;20012;-85
2021/09/17 05:01:38;;;;;;;51.55;30.55;;;13.40;99.90;;;14.67;100.00;100576.63;6237288;22;20038;-88
2021/09/17 05:04:04;;;;;;;52.38;30.70;;;13.40;99.90;;;14.66;100.00;100575.81;6260441;23;20034;-89
2021/09/17 05:06:33;;;;;;;48.50;28.27;;;13.40;99.90;;;14.66;100.00;100569.38;6233314;23;20030;-87
2021/09/17 05:09:02;;;;;;;52.38;32.10;;;13.50;99.90;;;14.67;100.00;100582.25;6234905;23;20012;-90
2021/09/17 05:11:28;;;;;;;48.80;28.38;;;13.40;99.90;;;14.63;100.00;100587.81;6233497;23;20024;-88
2021/09/17 05:13:54;;;;;;;48.45;29.48;;;13.30;99.90;;;14.61;100.00;100584.56;6235280;23;20000;-87
2021/09/17 05:16:20;;;;;;;49.03;30.75;;;13.40;99.90;;;14.61;100.00;100589.38;6236815;23;20031;-85
2021/09/17 05:18:47;;;;;;;46.67;27.00;;;13.40;99.90;;;14.61;100.00;100590.19;6266424;23;20011;-87
2021/09/17 05:21:13;;;;;;;46.75;28.15;;;13.30;99.90;;;14.64;100.00;100588.63;6244891;22;20024;-85
2021/09/17 05:23:40;;;;;;;58.75;32.00;;;13.40;99.90;;;14.66;100.00;100592.66;6243480;23;20094;-86
2021/09/17 05:26:07;;;;;;;50.53;29.27;;;13.40;99.90;;;14.69;100.00;100589.09;6242192;23;20008;-87
2021/09/17 05:28:36;;;;;;;54.17;32.53;;;13.50;99.90;;;14.73;100.00;100586.31;6237611;23;20004;-86
2021/09/17 05:31:02;;;;;;;62.17;35.08;;;13.40;99.90;;;14.76;100.00;100596.78;6229507;23;20062;-89
2021/09/17 05:33:28;;;;;;;56.53;31.67;;;13.50;99.90;;;14.78;100.00;100595.19;6255165;23;20090;-86
2021/09/17 05:35:55;;;;;;;71.57;38.45;;;13.60;99.90;;;14.82;100.00;100600.84;6230560;23;20038;-89
2021/09/17 05:38:21;;;;;;;80.38;40.95;;;13.50;99.90;;;14.90;100.00;100605.31;6230569;23;20012;-86
2021/09/17 05:40:47;;;;;;;76.90;40.53;;;13.60;99.90;;;14.97;100.00;100590.50;6232564;23;20456;-85
2021/09/17 05:43:13;;;;;;;64.55;35.83;;;13.70;99.90;;;15.03;100.00;100589.75;6228059;23;20066;-88
2021/09/17 05:45:38;;;;;;;86.40;44.78;;;13.70;99.90;;;15.11;100.00;100591.44;6225913;23;20012;-87
2021/09/17 05:48:06;;;;;;;73.43;38.63;;;13.80;99.90;;;15.17;100.00;100600.31;6226453;23;20012;-87
2021/09/17 05:50:32;;;;;;;73.53;40.50;;;13.80;99.90;;;15.22;100.00;100597.94;6226363;23;20023;-87
2021/09/17 05:52:58;;;;;;;59.72;35.25;;;13.90;99.90;;;15.30;100.00;100601.63;6226516;23;20015;-87
2021/09/17 05:55:27;;;;;;;67.05;37.55;;;14.00;99.90;;;15.36;100.00;100602.88;6225954;23;20004;-86
2021/09/17 05:57:55;;;;;;;77.57;42.63;;;14.00;99.90;;;15.42;100.00;100606.13;6225812;23;20012;-84
2021/09/17 06:00:22;;;;;;;69.30;39.42;;;14.10;99.90;;;15.48;100.00;100611.03;6226992;23;20004;-84
2021/09/17 06:02:48;;;;;;;80.22;44.60;;;14.10;99.90;;;15.55;100.00;100602.63;6227562;23;20004;-87
2021/09/17 06:05:14;;;;;;;67.63;36.25;;;14.20;99.90;;;15.62;100.00;100611.13;6226529;23;20068;-87
2021/09/17 06:07:44;;;;;;;61.38;35.65;;;14.30;99.90;;;15.67;100.00;100613.56;6226723;23;20012;-86
2021/09/17 06:10:12;;;;;;;64.07;38.55;;;14.30;99.90;;;15.73;100.00;100605.56;6226175;23;20468;-87
2021/09/17 06:12:39;;;;;;;62.30;35.53;;;14.40;99.90;;;15.75;100.00;100592.69;6229866;23;20008;-85
2021/09/17 06:15:07;;;;;;;60.80;34.83;;;14.40;99.90;;;15.81;100.00;100607.19;6228590;23;20015;-87
2021/09/17 06:17:33;;;;;;;65.90;38.88;;;14.50;99.90;;;15.82;100.00;100600.38;6229194;23;20008;-85
2021/09/17 06:19:59;;;;;;;64.80;36.30;;;14.50;99.90;;;15.90;100.00;100606.84;6229398;23;20007;-84
2021/09/17 06:22:25;;;;;;;65.35;38.67;;;14.50;99.90;;;15.90;100.00;100593.56;6227691;23;20028;-88
2021/09/17 06:24:54;;;;;;;59.53;35.38;;;14.60;99.90;;;15.92;100.00;100602.44;6228493;23;20004;-87
2021/09/17 06:27:20;;;;;;;72.50;42.28;;;14.60;99.90;;;15.96;100.00;100596.81;6226302;23;20004;-84
2021/09/17 06:29:48;;;;;;;65.50;38.15;;;14.70;99.90;;;16.02;100.00;100596.03;6255409;22;20047;-86
2021/09/17 06:32:23;;;;;;;63.28;36.83;;;14.70;99.90;;;16.09;100.00;100590.41;6228134;23;20004;-85
2021/09/17 06:35:53;;;;;;;60.97;35.25;;;14.70;99.90;;;16.18;100.00;100590.06;6225772;23;20030;-83
2021/09/17 06:38:28;;;;;;;60.15;34.65;;;14.80;99.90;;;16.29;100.00;100599.34;6226052;23;20062;-87
2021/09/17 06:41:19;;;;;;;55.35;33.25;;;14.90;99.90;;;16.34;100.00;100596.94;6227320;23;20083;-86
2021/09/17 06:44:03;;;;;;;52.80;33.25;;;15.00;99.90;;;16.48;100.00;100590.53;6226040;23;20039;-85
2021/09/17 06:46:54;;;;;;;;;;;;;;;;;;;;;
2021/09/17 06:49:41;;;;;;;62.55;35.75;;;15.20;99.90;;;16.64;100.00;100588.19;6251065;22;20437;-87
2021/09/17 17:37:10;;;;;;;23.20;18.35;;;18.10;99.90;;;19.25;97.11;100422.19;6218894;23;20047;-91
2021/09/17 17:39:39;;;;;;;25.52;19.73;;;18.00;99.90;;;19.10;96.97;100426.41;6191556;23;20034;-88
2021/09/17 17:42:19;;;;;;;25.33;16.35;;;17.80;99.90;;;18.93;97.56;100422.56;6189139;23;20039;-88
2021/09/17 17:44:48;;;;;;;30.20;20.88;;;17.70;99.90;;;18.86;97.72;100430.28;6187491;23;19997;-91
2021/09/17 17:47:14;;;;;;;26.63;18.95;;;17.70;99.90;;;18.74;98.07;100428.81;6186982;23;20339;-90
2021/09/17 17:49:41;;;;;;;24.30;16.98;;;17.60;99.90;;;18.59;98.71;100423.72;6161270;23;20009;-90
2021/09/17 17:52:14;;;;;;;21.70;16.30;;;17.50;99.90;;;18.54;99.45;100429.78;6185718;23;20016;-89
2021/09/17 17:54:41;;;;;;;26.13;16.73;;;17.30;99.90;;;18.42;100.00;100429.06;6163215;23;20088;-88
2021/09/17 17:57:21;;;;;;;23.95;17.73;;;17.20;99.90;;;18.40;100.00;100428.66;6170920;23;20032;-90
2021/09/17 17:59:47;;;;;;;22.17;16.38;;;17.20;99.90;;;18.29;100.00;100419.47;6166376;23;20075;-90
2021/09/17 18:02:17;;;;;;;17.70;13.93;;;17.10;99.90;;;18.22;100.00;100424.38;6200560;23;20088;-90
2021/09/17 18:04:44;;;;;;;23.63;16.23;;;17.10;99.90;;;18.13;100.00;100426.88;6241026;23;20011;-90
2021/09/17 18:07:13;;;;;;;19.92;14.73;;;16.90;99.90;;;18.04;100.00;100429.38;6240495;23;20008;-90
2021/09/17 18:09:39;;;;;;;23.85;15.82;;;16.80;99.90;;;17.92;100.00;100421.38;6240532;23;20013;-91
2021/09/17 18:12:09;;;;;;;20.00;15.50;;;16.70;99.90;;;17.83;100.00;100422.63;6240534;23;20009;-90
2021/09/17 18:14:38;;;;;;;22.95;16.13;;;16.70;99.90;;;17.78;100.00;100430.72;6239813;23;20009;-87
2021/09/17 18:17:04;;;;;;;26.80;17.00;;;16.60;99.90;;;17.72;100.00;100430.34;6241195;23;20012;-91
2021/09/17 18:19:31;;;;;;;22.63;17.25;;;16.60;99.90;;;17.62;100.00;100433.25;6239962;23;20013;-88
2021/09/17 18:21:57;;;;;;;23.98;17.77;;;16.40;99.90;;;17.57;100.00;100439.31;6240016;23;20001;-90
2021/09/17 18:24:24;;;;;;;24.20;17.80;;;16.40;99.90;;;17.52;100.00;100428.41;6240488;23;20009;-89
2021/09/17 18:26:50;;;;;;;25.48;16.98;;;16.30;99.90;;;17.44;100.00;100435.28;6239987;23;20008;-91
2021/09/17 18:29:16;;;;;;;26.70;19.85;;;16.30;99.90;;;17.43;100.00;100431.69;6240071;23;20207;-91
2021/09/17 18:31:45;;;;;;;27.48;19.10;;;16.30;99.90;;;17.45;100.00;100440.53;6239886;23;20460;-90
2021/09/17 18:34:11;;;;;;;24.08;18.50;;;16.30;99.90;;;17.40;100.00;100441.75;6240410;23;20008;-88
2021/09/17 18:36:37;;;;;;;29.50;20.83;;;16.30;99.90;;;17.44;100.00;100449.41;6214887;23;20080;-88
2021/09/17 18:39:03;;;;;;;24.02;18.38;;;16.30;99.90;;;17.43;100.00;100445.81;6215393;23;20068;-89
2021/09/17 18:41:33;;;;;;;25.50;19.95;;;16.30;99.90;;;17.46;100.00;100453.44;6240310;23;20043;-89
2021/09/17 18:43:59;;;;;;;33.90;21.48;;;16.30;99.90;;;17.49;100.00;100449.00;6241299;23;20005;-90
2021/09/17 18:46:25;;;;;;;29.60;22.63;;;16.30;99.90;;;17.49;100.00;100449.00;6242755;23;20009;-90
2021/09/17 18:48:51;;;;;;;29.45;22.45;;;16.30;99.90;;;17.54;100.00;100457.84;6265658;22;19996;-83
2021/09/17 18:51:18;;;;;;;26.92;20.50;;;16.30;99.90;;;17.52;100.00;100456.66;6258522;22;20386;-87
2021/09/17 18:53:44;;;;;;;24.50;17.80;;;16.20;99.90;;;17.54;100.00;100460.66;6224800;23;20039;-89
2021/09/17 18:56:27;;;;;;;27.30;19.33;;;16.30;99.90;;;17.51;100.00;100452.22;6223943;23;20104;-88
2021/09/17 18:58:55;;;;;;;32.13;23.02;;;16.30;99.90;;;17.58;100.00;100463.50;6250313;23;20016;-89
2021/09/17 19:01:24;;;;;;;27.58;20.40;;;16.30;99.90;;;17.57;100.00;100464.72;6221295;23;20015;-86
2021/09/17 19:03:50;;;;;;;29.25;21.40;;;16.30;99.90;;;17.56;100.00;100463.94;6242587;23;20005;-88
2021/09/17 19:06:16;;;;;;;29.70;20.85;;;16.40;99.90;;;17.60;100.00;100458.25;6242819;23;20008;-88
2021/09/17 19:08:42;;;;;;;29.88;21.17;;;16.40;99.90;;;17.60;100.00;100461.06;6244055;23;20016;-88
2021/09/17 19:11:15;;;;;;;26.80;19.35;;;16.40;99.90;;;17.56;100.00;100458.28;6243300;23;20437;-86
2021/09/17 19:13:41;;;;;;;26.38;19.55;;;16.40;99.90;;;17.58;100.00;100472.78;6218296;23;20016;-88
2021/09/17 19:16:07;;;;;;;23.25;18.15;;;16.40;99.90;;;17.50;100.00;100459.09;6243713;23;20008;-88
2021/09/17 19:18:34;;;;;;;28.60;20.02;;;16.30;99.90;;;17.51;100.00;100469.97;6244642;23;20035;-89
2021/09/17 19:21:00;;;;;;;24.17;18.85;;;16.30;99.90;;;17.47;100.00;100469.16;6245517;23;20004;-88
2021/09/17 19:23:26;;;;;;;24.48;18.80;;;16.20;99.90;;;17.43;100.00;100473.22;6243707;23;20422;-87
2021/09/17 19:25:52;;;;;;;26.00;19.27;;;16.20;99.90;;;17.39;100.00;100476.88;6244723;23;20039;-87
2021/09/17 19:28:18;;;;;;;23.23;17.30;;;16.20;99.90;;;17.36;100.00;100479.69;6243773;23;20039;-89
2021/09/17 19:30:44;;;;;;;24.20;18.40;;;16.10;99.90;;;17.35;100.00;100476.06;6242340;23;20703;-89
2021/09/17 19:33:10;;;;;;;26.45;19.73;;;16.20;99.90;;;17.29;100.00;100465.59;6243445;23;20027;-86
2021/09/17 19:35:36;;;;;;;28.75;21.00;;;16.10;99.90;;;17.31;100.00;100480.91;6244378;23;20008;-89
2021/09/17 19:38:02;;;;;;;27.15;19.70;;;16.10;99.90;;;17.26;100.00;100470.06;6220109;23;20015;-89
2021/09/17 19:40:28;;;;;;;24.23;19.63;;;16.10;99.90;;;17.26;100.00;100483.34;6243527;23;20008;-88
2021/09/17 19:42:55;;;;;;;29.50;20.20;;;16.10;99.90;;;17.16;100.00;100478.53;6243134;23;20100;-88
2021/09/17 19:45:21;;;;;;;25.58;19.88;;;16.00;99.90;;;17.13;100.00;100485.00;6245192;23;20008;-88
2021/09/17 19:47:48;;;;;;;29.27;21.73;;;15.90;99.90;;;17.09;100.00;100485.00;6242831;23;20059;-88
2021/09/17 19:50:16;;;;;;;27.77;22.02;;;15.90;99.90;;;17.05;100.00;100484.19;6243132;23;20012;-87
2021/09/17 19:52:43;;;;;;;33.83;24.63;;;15.90;99.90;;;17.06;100.00;100490.66;6244274;23;20016;-89
2021/09/17 19:55:11;;;;;;;31.73;22.73;;;15.80;99.90;;;17.09;100.00;100484.19;6250990;23;20005;-87
2021/09/17 19:57:40;;;;;;;29.08;22.33;;;15.90;99.90;;;17.10;100.00;100491.47;6229203;23;20005;-90
2021/09/17 20:00:11;;;;;;;23.20;18.08;;;15.90;99.90;;;17.07;100.00;100489.44;6232098;23;20338;-88
2021/09/17 20:02:37;;;;;;;25.45;19.30;;;15.90;99.90;;;17.05;100.00;100495.47;6246600;23;20005;-89
2021/09/17 20:05:06;;;;;;;26.95;20.38;;;15.90;99.90;;;17.02;100.00;100501.94;6244420;23;20009;-89
2021/09/17 20:07:33;;;;;;;27.85;19.70;;;15.80;99.90;;;16.97;100.00;100493.91;6245519;23;20008;-89
2021/09/17 20:09:59;;;;;;;25.52;20.00;;;15.80;99.90;;;16.95;100.00;100501.16;6245946;23;20515;-90
2021/09/17 20:12:25;;;;;;;27.52;19.42;;;15.80;99.90;;;16.83;100.00;100491.09;6246396;23;20062;-89
2021/09/17 20:14:52;;;;;;;28.02;19.42;;;15.80;99.90;;;16.78;100.00;100491.50;6247749;23;20074;-88
2021/09/17 20:17:18;;;;;;;25.20;18.23;;;15.70;99.90;;;16.76;100.00;100499.56;6245440;23;20009;-88
2021/09/17 20:19:44;;;;;;;27.17;20.55;;;15.50;99.90;;;16.61;100.00;100489.47;6248062;23;20039;-87
2021/09/17 20:22:11;;;;;;;30.42;23.25;;;15.60;99.90;;;16.60;100.00;100494.31;6246617;23;20031;-90
2021/09/17 20:24:37;;;;;;;26.75;19.98;;;15.40;99.90;;;16.58;100.00;100496.75;6248495;23;20088;-88
2021/09/17 20:27:03;;;;;;;27.35;19.98;;;15.50;99.90;;;16.52;100.00;100495.50;6247286;23;20347;-88
2021/09/17 20:29:29;;;;;;;31.17;21.52;;;15.40;99.90;;;16.47;100.00;100487.44;6248516;22;20014;-88
2021/09/17 20:31:59;;;;;;;30.05;20.83;;;15.40;99.90;;;16.50;100.00;100503.56;6221405;23;20096;-88
2021/09/17 20:34:35;;;;;;;26.92;20.20;;;15.40;99.90;;;16.44;100.00;100493.09;6250879;23;20073;-87
2021/09/17 20:37:02;;;;;;;28.70;21.13;;;15.30;99.90;;;16.39;100.00;100497.09;6223907;23;20012;-86
2021/09/17 20:39:32;;;;;;;28.40;22.52;;;15.30;99.90;;;16.36;100.00;100497.91;6250428;23;20035;-88
2021/09/17 20:41:59;;;;;;;30.33;21.58;;;15.30;99.90;;;16.35;100.00;100507.56;6247974;23;20009;-90
2021/09/17 20:44:26;;;;;;;30.67;22.45;;;15.20;99.90;;;16.34;100.00;100503.16;6245327;23;20004;-89
2021/09/17 20:46:52;;;;;;;32.65;24.88;;;15.20;99.90;;;16.28;100.00;100504.72;6250163;23;20079;-87
2021/09/17 20:49:19;;;;;;;31.88;22.67;;;15.20;99.90;;;16.24;100.00;100501.13;6248795;23;20391;-87
2021/09/17 20:51:46;;;;;;;27.05;20.08;;;15.10;99.90;;;16.21;100.00;100502.69;6248600;23;20013;-90
2021/09/17 20:54:14;;;;;;;30.25;21.42;;;15.00;99.90;;;16.21;100.00;100504.72;6224192;23;20039;-88
2021/09/17 20:56:41;;;;;;;30.70;22.00;;;15.10;99.90;;;16.15;100.00;100495.84;6251051;23;20012;-88
2021/09/17 20:59:17;;;;;;;27.02;20.50;;;15.10;99.90;;;16.21;100.00;100513.97;6251919;23;20036;-86
2021/09/17 21:01:43;;;;;;;29.08;22.38;;;15.00;99.90;;;16.13;100.00;100503.09;6259648;22;20024;-83
2021/09/17 21:04:09;;;;;;;29.70;21.13;;;15.00;99.90;;;16.13;100.00;100511.53;6268030;22;20007;-85
2021/09/17 21:06:35;;;;;;;30.73;22.05;;;15.00;99.90;;;16.05;100.00;100505.09;6249406;22;20013;-86
2021/09/17 21:09:02;;;;;;;28.77;21.30;;;15.00;99.90;;;16.11;100.00;100516.78;6245165;23;20116;-89
2021/09/17 21:11:31;;;;;;;24.33;18.30;;;14.90;99.90;;;16.03;100.00;100503.88;6220624;23;20004;-89
2021/09/17 21:13:57;;;;;;;25.50;19.55;;;15.00;99.90;;;16.01;100.00;100506.28;6221535;23;20001;-87
2021/09/17 21:16:23;;;;;;;25.33;19.48;;;14.90;99.90;;;15.98;100.00;100516.34;6247273;23;20020;-87
2021/09/17 21:18:52;;;;;;;27.88;20.25;;;14.90;99.90;;;15.95;100.00;100517.16;6220723;23;20359;-87
2021/09/17 21:21:18;;;;;;;29.35;21.48;;;14.80;99.90;;;15.91;100.00;100507.88;6219609;23;20031;-87
2021/09/17 21:23:46;;;;;;;27.40;19.85;;;14.80;99.90;;;15.92;100.00;100519.94;6246422;23;20004;-89
2021/09/17 21:26:13;;;;;;;28.58;21.30;;;14.80;99.90;;;15.88;100.00;100510.66;6220180;23;20076;-89
2021/09/17 21:28:39;;;;;;;28.85;20.52;;;14.80;99.90;;;15.89;100.00;100513.09;6244227;23;20039;-89